Time;durP1;ratioP1;P1;durP2;ratioP2;P2;SDS_P1;SDS_P2;PMS_P1;PMS_P2;Temp;Humidity;BMP_temperature;BMP_pressure;BME280_temperature;BME280_humidity;BME280_pressure;Samples;Min_cycle;Max_cycle;Signal;HPM_P1;HPM_P2
2024/03/17 00:00:37;;;;;;;6.50;2.20;;;;;;;5.41;74.59;100734.42;128303;1274;114937;-68
2024/03/17 00:04:27;;;;;;;4.30;1.80;;;;;;;5.33;74.70;100732.64;128274;1296;128060;-67
2024/03/17 00:07:53;;;;;;;6.00;1.80;;;;;;;5.25;74.80;100738.83;128298;1296;114929;-67
2024/03/17 00:11:35;;;;;;;;;;;;;;;;;;;;;
2024/03/17 00:19:22;;;;;;;5.70;2.00;;;;;;;4.97;75.05;100744.51;128323;1278;114910;-67
2024/03/17 00:27:42;;;;;;;;;;;;;;;;;;;;;
2024/03/17 00:31:34;;;;;;;5.30;1.90;;;;;;;4.71;75.24;100744.99;126926;1304;114864;-68
2024/03/17 00:35:36;;;;;;;3.30;1.50;;;;;;;4.63;75.30;100749.21;126621;1302;115259;-67
2024/03/17 00:39:37;;;;;;;;;;;;;;;;;;;;;
2024/03/17 00:43:52;;;;;;;;;;;;;;;;;;;;;
2024/03/17 00:47:56;;;;;;;7.50;2.40;;;;;;;4.35;75.92;100752.86;127488;1278;128614;-66
2024/03/17 00:51:58;;;;;;;6.10;2.30;;;;;;;4.27;76.14;100752.99;126943;1305;114909;-67
2024/03/17 00:55:39;;;;;;;5.20;1.90;;;;;;;4.18;76.20;100754.02;121846;1315;5656855;-67
2024/03/17 00:59:49;;;;;;;;;;;;;;;;;;;;;
2024/03/17 01:03:17;;;;;;;;;;;;;;;;;;;;;
2024/03/17 01:07:04;;;;;;;;;;;;;;;;;;;;;
2024/03/17 01:19:40;;;;;;;5.00;2.40;;;;;;;3.80;77.29;100755.64;125779;1313;638914;-65
2024/03/17 01:23:42;;;;;;;3.90;2.50;;;;;;;3.72;77.33;100757.36;128012;1281;128647;-67
2024/03/17 01:27:44;;;;;;;6.40;2.80;;;;;;;3.65;77.44;100757.30;127731;1283;114871;-65
2024/03/17 01:31:48;;;;;;;4.80;2.20;;;;;;;3.56;77.47;100759.86;122925;1286;5603648;-65
2024/03/17 01:35:50;;;;;;;5.10;2.30;;;;;;;3.48;77.69;100761.21;125950;1293;115100;-66
2024/03/17 01:44:24;;;;;;;5.00;2.00;;;;;;;3.34;77.91;100764.55;125640;1302;639396;-66
2024/03/17 01:48:19;;;;;;;;;;;;;;;;;;;;;
2024/03/17 01:52:14;;;;;;;5.90;2.90;;;;;;;3.18;78.13;100770.21;125683;1321;114972;-65
2024/03/17 02:00:43;;;;;;;6.00;2.00;;;;;;;3.05;78.68;100771.77;125600;1301;640319;-66
2024/03/17 02:04:38;;;;;;;5.70;2.50;;;;;;;2.98;78.87;100771.48;128001;1282;128700;-65
2024/03/17 02:08:41;;;;;;;5.30;2.80;;;;;;;2.94;79.03;100771.72;127347;1287;115204;-66
2024/03/17 02:12:42;;;;;;;5.50;2.30;;;;;;;2.90;79.06;100774.93;121786;1299;5614782;-66
2024/03/17 02:16:43;;;;;;;7.00;2.30;;;;;;;2.85;79.29;100780.97;124676;1311;114891;-66
2024/03/17 02:25:20;;;;;;;5.00;1.30;;;;;;;2.80;79.46;100784.73;125684;1301;638520;-67
2024/03/17 02:29:22;;;;;;;4.70;1.90;;;;;;;2.71;79.59;100781.81;127623;1284;128502;-67
2024/03/17 02:33:24;;;;;;;4.00;1.60;;;;;;;2.67;79.93;100781.33;126621;1309;114997;-65
2024/03/17 02:37:19;;;;;;;;;;;;;;;;;;;;;
2024/03/17 02:41:14;;;;;;;6.80;2.40;;;;;;;2.58;79.81;100790.92;125078;1326;114895;-67
2024/03/17 02:49:50;;;;;;;3.30;1.50;;;;;;;2.54;80.22;100798.18;125633;1298;638620;-67
2024/03/17 02:53:32;;;;;;;4.30;1.60;;;;;;;2.50;80.32;100799.64;127424;1304;128686;-66
2024/03/17 02:57:31;;;;;;;;;;;;;;;;;;;;;
2024/03/17 03:01:19;;;;;;;6.50;1.80;;;;;;;2.44;80.25;100804.80;121611;1320;5539094;-66
2024/03/17 03:09:54;;;;;;;6.70;2.10;;;;;;;2.41;80.20;100815.75;125645;1300;638407;-67
2024/03/17 03:13:50;;;;;;;;;;;;;;;;;;;;;
2024/03/17 03:17:45;;;;;;;;;;;;;;;;;;;;;
2024/03/17 03:21:45;;;;;;;5.60;1.90;;;;;;;2.26;80.49;100816.20;125882;1292;216783;-68
2024/03/17 03:25:31;;;;;;;;;;;;;;;;;;;;;
2024/03/17 03:29:32;;;;;;;3.50;1.60;;;;;;;2.18;80.69;100819.61;124894;1310;115442;-67
2024/03/17 03:33:33;;;;;;;4.50;1.60;;;;;;;2.14;80.85;100822.11;124735;1310;129972;-67
2024/03/17 03:37:32;;;;;;;;;;;;;;;;;;;;;
2024/03/17 03:42:02;;;;;;;6.70;2.00;;;;;;;2.07;81.05;100815.81;125762;1299;638797;-65
2024/03/17 03:45:49;;;;;;;;;;;;;;;;;;;;;
2024/03/17 03:49:53;;;;;;;7.20;1.90;;;;;;;1.95;81.01;100817.81;126764;1309;115148;-65
2024/03/17 03:53:55;;;;;;;4.50;2.60;;;;;;;1.90;80.88;100823.13;121387;1309;5906333;-65
2024/03/17 04:02:23;;;;;;;7.60;2.60;;;;;;;1.81;81.38;100815.77;125935;1301;637998;-65
2024/03/17 04:06:24;;;;;;;;;;;;;;;;;;;;;
2024/03/17 04:10:15;;;;;;;7.10;2.70;;;;;;;1.70;81.38;100816.88;127489;1303;114873;-66
2024/03/17 04:14:19;;;;;;;6.70;2.30;;;;;;;1.66;81.56;100821.48;122566;1292;5774363;-65
2024/03/17 04:18:17;;;;;;;13.10;2.00;;;;;;;1.61;81.67;100822.73;125345;1306;114911;-67
2024/03/17 04:26:35;;;;;;;;;;;;;;;;;;;;;
2024/03/17 04:30:37;;;;;;;;;;;;;;;;;;;;;
2024/03/17 04:34:39;;;;;;;8.40;1.90;;;;;;;1.50;81.90;100829.64;126210;1294;114929;-64
2024/03/17 04:38:22;;;;;;;5.50;2.60;;;;;;;1.47;81.83;100831.94;121602;1318;5613387;-65
2024/03/17 04:42:17;;;;;;;;;;;;;;;;;;;;;
2024/03/17 04:50:49;;;;;;;;;;;;;;;;;;;;;
2024/03/17 04:54:53;;;;;;;5.60;1.90;;;;;;;1.34;82.18;100843.07;128471;1292;128020;-64
2024/03/17 04:58:56;;;;;;;5.90;2.10;;;;;;;1.31;82.36;100846.42;127355;1304;114912;-66
2024/03/17 05:02:56;;;;;;;7.70;1.80;;;;;;;1.29;82.43;100848.72;122260;1295;5568436;-65
2024/03/17 05:07:01;;;;;;;6.60;2.00;;;;;;;1.27;82.51;100848.90;126374;1314;114931;-65
2024/03/17 05:11:01;;;;;;;6.30;1.40;;;;;;;1.28;82.79;100848.02;125732;1302;114914;-65
2024/03/17 05:14:55;;;;;;;;;;;;;;;;;;;;;
2024/03/17 05:19:24;;;;;;;6.60;2.30;;;;;;;1.46;83.07;100853.23;125592;1310;637626;-65
2024/03/17 05:23:26;;;;;;;5.40;2.00;;;;;;;1.57;83.49;100852.49;127688;1285;128743;-67
2024/03/17 05:27:31;;;;;;;7.00;2.60;;;;;;;1.66;83.45;100862.33;126662;1294;114814;-65
2024/03/17 05:31:32;;;;;;;6.80;2.10;;;;;;;1.79;83.40;100862.80;121785;1301;5529330;-65
2024/03/17 05:35:24;;;;;;;7.10;2.20;;;;;;;1.93;83.51;100863.62;124838;1328;114917;-65
2024/03/17 05:43:51;;;;;;;5.30;1.90;;;;;;;2.16;83.15;100870.38;125552;1311;640256;-65
2024/03/17 05:47:52;;;;;;;9.10;2.40;;;;;;;2.23;83.33;100868.05;127544;1284;129815;-66
2024/03/17 05:51:55;;;;;;;6.00;1.90;;;;;;;2.32;83.19;100875.91;126672;1294;114964;-66
2024/03/17 05:55:47;;;;;;;6.20;2.20;;;;;;;2.43;82.91;100871.80;121539;1302;5537451;-65
2024/03/17 06:04:06;;;;;;;;;;;;;;;;;;;;;
2024/03/17 06:08:11;;;;;;;5.40;1.70;;;;;;;2.70;82.91;100872.48;127389;1285;130003;-66
2024/03/17 06:12:13;;;;;;;5.90;2.50;;;;;;;2.83;82.97;100872.73;125925;1317;114960;-66
2024/03/17 06:16:14;;;;;;;4.40;1.50;;;;;;;2.98;82.74;100877.71;121359;1304;5765131;-67
2024/03/17 06:24:43;;;;;;;5.30;1.40;;;;;;;3.67;82.84;100885.66;125863;1297;639615;-67
2024/03/17 06:28:28;;;;;;;;;;;;;;;;;;;;;
2024/03/17 06:32:18;;;;;;;5.00;1.40;;;;;;;4.49;81.77;100889.71;128087;1279;114887;-67
2024/03/17 06:36:42;;;;;;;5.80;1.30;;;;;;;4.84;81.30;100898.56;127540;1286;115030;-67
2024/03/17 06:40:12;;;;;;;5.90;1.90;;;;;;;5.16;80.49;100901.38;123399;1306;114875;-68
2024/03/17 06:43:56;;;;;;;5.40;1.80;;;;;;;5.46;80.04;100907.40;126408;1312;114849;-68
2024/03/17 06:47:49;;;;;;;;;;;;;;;;;;;;;
2024/03/17 06:51:42;;;;;;;;;;;;;;;;;;;;;
2024/03/17 06:55:37;;;;;;;;;;;;;;;;;;;;;
2024/03/17 07:00:11;;;;;;;;;;;;;;;;;;;;;
2024/03/17 07:04:16;;;;;;;8.40;2.20;;;;;;;6.91;76.68;100912.86;127600;1303;127219;-68
2024/03/17 07:08:09;;;;;;;6.50;1.10;;;;;;;7.14;76.32;100914.77;125995;1308;114890;-67
2024/03/17 07:12:10;;;;;;;5.40;1.20;;;;;;;7.44;75.78;100914.18;121023;1321;5630589;-67
2024/03/17 07:20:47;;;;;;;6.20;1.20;;;;;;;8.18;74.24;100909.80;125586;1311;638683;-67
2024/03/17 07:24:47;;;;;;;5.50;1.50;;;;;;;8.48;73.86;100908.71;127195;1285;128632;-67
2024/03/17 07:28:41;;;;;;;;;;;;;;;;;;;;;
2024/03/17 07:32:27;;;;;;;6.10;1.00;;;;;;;9.18;71.97;100917.53;121353;1302;5540799;-68
2024/03/17 07:36:32;;;;;;;3.00;0.90;;;;;;;9.45;71.38;100915.02;124656;1329;115064;-68
2024/03/17 07:40:22;;;;;;;3.40;1.10;;;;;;;9.81;70.67;100909.09;124603;1313;116569;-68
2024/03/17 07:43:59;;;;;;;;;;;;;;;;;;;;;
2024/03/17 07:47:52;;;;;;;;;;;;;;;;;;;;;
2024/03/17 07:52:26;;;;;;;5.70;1.80;;;;;;;10.03;67.77;100907.41;125373;1302;636513;-68
2024/03/17 08:00:45;;;;;;;5.60;1.20;;;;;;;10.18;67.24;100910.75;126244;1313;114971;-66
2024/03/17 08:04:39;;;;;;;;;;;;;;;;;;;;;
2024/03/17 08:09:08;;;;;;;6.20;1.40;;;;;;;10.43;66.42;100914.64;125805;1298;638614;-67
2024/03/17 08:13:15;;;;;;;5.90;1.50;;;;;;;10.79;64.80;100908.77;127422;1302;128412;-67
2024/03/17 08:17:06;;;;;;;9.10;1.40;;;;;;;10.87;64.04;100909.31;126088;1295;115007;-68
2024/03/17 08:21:09;;;;;;;3.70;1.20;;;;;;;10.94;63.48;100914.41;121249;1320;5590433;-68
2024/03/17 08:29:41;;;;;;;4.70;1.60;;;;;;;10.59;62.12;100910.27;125382;1301;638544;-67
2024/03/17 08:33:46;;;;;;;8.90;2.30;;;;;;;10.42;61.53;100909.70;126936;1289;128817;-67
2024/03/17 08:41:27;;;;;;;;;;;;;;;;;;;;;
2024/03/17 08:45:18;;;;;;;4.80;1.00;;;;;;;9.69;60.71;100909.54;123885;1328;114950;-67
2024/03/17 08:49:44;;;;;;;5.40;1.60;;;;;;;9.52;60.28;100915.66;125617;1300;636022;-68
2024/03/17 08:53:41;;;;;;;4.60;1.20;;;;;;;9.38;60.22;100913.82;128967;1281;127980;-68
2024/03/17 08:57:42;;;;;;;9.70;1.70;;;;;;;9.58;60.43;100901.89;128567;1275;114911;-68
2024/03/17 09:01:34;;;;;;;5.00;1.30;;;;;;;9.92;60.35;100908.17;123098;1286;5586421;-67
2024/03/17 09:05:36;;;;;;;3.00;1.10;;;;;;;10.19;59.31;100913.39;126433;1308;114895;-66
2024/03/17 09:09:38;;;;;;;6.40;1.30;;;;;;;10.22;58.58;100914.35;126102;1313;115639;-68
2024/03/17 09:13:32;;;;;;;;;;;;;;;;;;;;;
2024/03/17 09:22:08;;;;;;;6.40;1.30;;;;;;;10.07;57.34;100913.84;125478;1300;638626;-68
2024/03/17 09:26:12;;;;;;;5.70;1.10;;;;;;;10.02;57.42;100910.45;127459;1285;128915;-67
2024/03/17 09:30:12;;;;;;;6.80;1.70;;;;;;;9.97;57.10;100912.81;126372;1292;115039;-68
2024/03/17 09:34:05;;;;;;;4.30;1.10;;;;;;;9.94;56.25;100911.84;122019;1317;5500101;-68
2024/03/17 09:46:32;;;;;;;;;;;;;;;;;;;;;
2024/03/17 09:50:29;;;;;;;;;;;;;;;;;;;;;
2024/03/17 09:54:37;;;;;;;4.50;1.10;;;;;;;10.93;54.42;100900.34;126131;1298;115426;-67
2024/03/17 09:58:39;;;;;;;7.10;1.90;;;;;;;11.27;55.17;100898.05;121385;1311;5440240;-68
2024/03/17 10:02:19;;;;;;;;;;;;;;;;;;;;;
2024/03/17 10:10:44;;;;;;;;;;;;;;;;;;;;;
2024/03/17 10:14:39;;;;;;;;;;;;;;;;;;;;;
2024/03/17 10:18:34;;;;;;;3.00;1.20;;;;;;;11.77;53.04;100894.75;126369;1297;115073;-68
2024/03/17 10:22:41;;;;;;;5.90;0.90;;;;;;;11.63;52.50;100892.17;122625;1292;5744080;-68
2024/03/17 10:26:34;;;;;;;3.80;1.20;;;;;;;11.60;52.08;100892.65;126411;1306;114980;-67
2024/03/17 10:30:59;;;;;;;4.90;1.10;;;;;;;11.45;51.87;100893.69;125856;1319;114994;-66
2024/03/17 10:34:28;;;;;;;;;;;;;;;;;;;;;
2024/03/17 10:38:39;;;;;;;7.10;2.70;;;;;;;10.69;51.86;100892.02;124048;1318;114812;-68
2024/03/17 10:46:58;;;;;;;;;;;;;;;;;;;;;
2024/03/17 10:50:55;;;;;;;5.20;1.90;;;;;;;11.21;52.59;100888.98;128474;1276;129092;-66
2024/03/17 10:54:50;;;;;;;2.80;1.20;;;;;;;11.49;51.73;100882.41;127651;1291;114996;-67
2024/03/17 10:58:57;;;;;;;6.80;2.60;;;;;;;11.75;51.52;100881.09;125698;1289;5833742;-68
2024/03/17 11:03:01;;;;;;;5.30;1.40;;;;;;;11.87;50.99;100870.34;126424;1290;114809;-68
2024/03/17 11:07:02;;;;;;;4.40;1.20;;;;;;;12.04;51.16;100871.55;126270;1293;130335;-67
2024/03/17 11:11:04;;;;;;;5.60;1.00;;;;;;;12.14;49.91;100875.23;125759;1298;114939;-67
2024/03/17 11:19:52;;;;;;;4.30;1.10;;;;;;;12.10;50.18;100872.89;125867;1309;637430;-67
2024/03/17 11:23:55;;;;;;;3.70;1.30;;;;;;;12.02;49.70;100869.52;126914;1290;129104;-67
2024/03/17 11:28:03;;;;;;;5.30;1.20;;;;;;;11.84;49.10;100868.67;126216;1313;114898;-67
2024/03/17 11:31:44;;;;;;;;;;;;;;;11.66;49.27;100869.13;121007;1311;5419024;-67
2024/03/17 11:40:20;;;;;;;4.50;1.40;;;;;;;11.56;48.84;100860.95;126090;1306;636795;-67
2024/03/17 11:44:23;;;;;;;6.00;1.20;;;;;;;11.49;48.43;100860.96;128032;1289;128817;-68
2024/03/17 11:48:35;;;;;;;;;;;;;;;;;;;;;
2024/03/17 11:52:31;;;;;;;;;;;;;;;;;;;;;
2024/03/17 11:56:33;;;;;;;4.70;1.50;;;;;;;11.00;47.86;100852.54;125951;1296;115448;-68
2024/03/17 12:00:21;;;;;;;4.90;1.30;;;;;;;11.00;48.01;100849.66;125250;1322;115060;-67
2024/03/17 12:08:50;;;;;;;6.00;1.60;;;;;;;10.78;48.07;100856.61;125768;1297;636725;-67
2024/03/17 12:12:34;;;;;;;;;;;;;;;;;;;;;
2024/03/17 12:16:49;;;;;;;;;;;;;;;;;;;;;
2024/03/17 12:20:47;;;;;;;3.80;1.10;;;;;;;11.39;47.96;100834.94;124654;1269;5722051;-67
2024/03/17 12:25:01;;;;;;;2.40;1.20;;;;;;;11.66;48.12;100831.91;128194;1280;114878;-69
2024/03/17 12:33:05;;;;;;;;;;;;;;;;;;;;;
2024/03/17 12:36:46;;;;;;;5.40;1.20;;;;;;;12.25;46.52;100811.13;126430;1295;129850;-68
2024/03/17 12:40:01;;;;;;;4.80;1.40;;;;;;;12.17;46.59;100809.91;126205;1295;115328;-67
2024/03/17 12:44:04;;;;;;;4.70;1.20;;;;;;;12.05;46.72;100814.74;126216;1313;114980;-67
2024/03/17 12:52:32;;;;;;;6.10;1.80;;;;;;;11.64;47.04;100806.44;125893;1301;638487;-67
2024/03/17 13:05:17;;;;;;;3.00;0.90;;;;;;;11.73;46.16;100805.69;122227;1298;5559893;-67
2024/03/17 13:09:18;;;;;;;4.50;1.10;;;;;;;11.56;45.84;100800.90;124685;1329;114909;-67
2024/03/17 13:17:54;;;;;;;4.90;1.10;;;;;;;10.99;46.60;100795.52;125882;1302;636188;-67
2024/03/17 13:21:55;;;;;;;4.50;1.80;;;;;;;10.65;46.86;100794.98;126740;1292;128876;-67
2024/03/17 13:26:18;;;;;;;3.10;0.90;;;;;;;10.58;47.00;100794.97;125899;1317;114965;-67
2024/03/17 13:30:01;;;;;;;4.10;1.00;;;;;;;10.58;46.53;100790.66;121332;1302;5588293;-67
2024/03/17 13:34:01;;;;;;;4.10;1.00;;;;;;;10.57;46.10;100784.45;124677;1311;114954;-67
2024/03/17 13:46:38;;;;;;;;;;;;;;;;;;;;;
2024/03/17 13:50:44;;;;;;;3.20;0.50;;;;;;;10.57;45.32;100788.17;126186;1314;115456;-68
2024/03/17 13:54:35;;;;;;;2.40;0.70;;;;;;;10.47;45.21;100791.11;121240;1326;5609977;-68
2024/03/17 14:03:10;;;;;;;6.50;2.30;;;;;;;10.43;45.30;100786.61;126052;1298;639128;-67
2024/03/17 14:06:53;;;;;;;;;;;;;;;;;;;;;
2024/03/17 14:10:58;;;;;;;5.20;1.60;;;;;;;10.57;45.21;100772.31;126785;1295;115051;-66
2024/03/17 14:14:52;;;;;;;4.40;1.00;;;;;;;10.70;45.73;100778.00;121891;1310;5661215;-67
2024/03/17 14:23:25;;;;;;;2.60;0.90;;;;;;;10.80;45.16;100776.34;125621;1301;637505;-68
2024/03/17 14:27:27;;;;;;;;;;;;;;;;;;;;;
2024/03/17 14:35:38;;;;;;;2.90;1.10;;;;;;;10.43;44.77;100787.86;121886;1302;5616372;-67
2024/03/17 14:39:39;;;;;;;6.20;1.00;;;;;;;10.24;44.75;100790.91;125263;1324;114930;-67
2024/03/17 14:48:09;;;;;;;5.90;1.20;;;;;;;10.13;45.13;100790.09;125561;1302;636208;-67
2024/03/17 14:51:42;;;;;;;3.10;0.90;;;;;;;10.15;45.13;100788.94;126893;1290;128328;-67
2024/03/17 14:55:44;;;;;;;4.90;2.00;;;;;;;10.16;44.83;100787.32;126653;1292;115333;-67
2024/03/17 14:59:48;;;;;;;3.50;1.10;;;;;;;10.16;44.56;100786.09;123170;1313;5626955;-68
2024/03/17 15:08:24;;;;;;;3.30;1.10;;;;;;;10.06;44.84;100778.05;125558;1306;641585;-68
2024/03/17 15:12:23;;;;;;;;;;;;;;;;;;;;;
2024/03/17 15:16:17;;;;;;;3.80;1.10;;;;;;;9.75;44.99;100781.98;127514;1303;114889;-67
2024/03/17 15:20:45;;;;;;;0.80;0.40;;;;;;;9.66;44.85;100781.93;121804;1312;5856277;-68
2024/03/17 15:24:41;;;;;;;5.70;1.40;;;;;;;9.52;44.81;100776.02;125509;1318;114833;-67
2024/03/17 15:28:46;;;;;;;2.00;1.10;;;;;;;9.38;44.91;100786.56;125102;1324;114904;-67
2024/03/17 15:36:52;;;;;;;;;;;;;;;;;;;;;
2024/03/17 15:40:55;;;;;;;5.40;1.40;;;;;;;9.08;45.99;100790.48;127460;1287;127681;-66
2024/03/17 15:44:50;;;;;;;;;;;;;;;;;;;;;
2024/03/17 15:48:46;;;;;;;5.10;1.50;;;;;;;8.86;46.60;100796.40;121561;1304;5714855;-66
2024/03/17 15:52:48;;;;;;;4.80;1.20;;;;;;;8.83;46.50;100797.73;124731;1325;115278;-67
2024/03/17 16:00:17;;;;;;;6.70;3.10;;;;;;;8.60;47.08;100796.22;126164;1294;636250;-63
2024/03/17 16:03:53;;;;;;;3.30;1.10;;;;;;;8.47;47.25;100803.02;129066;1284;114762;-62
2024/03/17 16:07:37;;;;;;;3.00;1.10;;;;;;;8.33;47.36;100808.79;128873;1271;114862;-61
2024/03/17 16:11:12;;;;;;;7.50;1.30;;;;;;;8.18;47.41;100808.90;128444;1277;114902;-61
2024/03/17 16:15:04;;;;;;;;;;;;;;;;;;;;;
2024/03/17 16:18:57;;;;;;;3.30;1.30;;;;;;;7.97;48.52;100813.27;127310;1302;114887;-63
2024/03/17 16:22:54;;;;;;;5.00;2.00;;;;;;;7.85;48.63;100818.80;127789;1302;115485;-61
2024/03/17 16:26:47;;;;;;;;;;;;;;;;;;;;;
2024/03/17 16:30:40;;;;;;;;;;;;;;;;;;;;;
2024/03/17 16:34:22;;;;;;;;;;;;;;;;;;;;;
2024/03/17 16:38:16;;;;;;;;;;;;;;;;;;;;;
2024/03/17 16:42:11;;;;;;;5.50;1.50;;;;;;;7.26;49.86;100836.81;125950;1294;114999;-62
2024/03/17 16:45:52;;;;;;;;;;;;;;;;;;;;;
2024/03/17 16:49:32;;;;;;;;;;;;;;;;;;;;;
2024/03/17 16:53:27;;;;;;;5.90;1.90;;;;;;;6.84;51.18;100842.18;125498;1316;114902;-61
2024/03/17 16:57:20;;;;;;;6.50;3.50;;;;;;;6.65;51.67;100842.99;125325;1321;114893;-61
2024/03/17 17:00:46;;;;;;;7.10;2.70;;;;;;;6.52;52.03;100847.41;125370;1321;114921;-62
2024/03/17 17:04:38;;;;;;;8.40;3.90;;;;;;;6.41;52.23;100849.26;125091;1318;128236;-65
2024/03/17 17:08:42;;;;;;;;;;;;;;;;;;;;;
2024/03/17 17:12:34;;;;;;;;;;;;;;;;;;;;;
2024/03/17 17:16:38;;;;;;;4.80;2.80;;;;;;;6.13;53.45;100850.60;126317;1294;639447;-62
2024/03/17 17:20:43;;;;;;;5.10;2.30;;;;;;;6.02;53.72;100854.38;127896;1289;127698;-62
2024/03/17 17:24:38;;;;;;;;;;;;;;;;;;;;;
2024/03/17 17:32:31;;;;;;;4.50;2.60;;;;;;;5.82;54.35;100869.33;120090;1321;115117;-62
2024/03/17 17:36:52;;;;;;;4.80;3.10;;;;;;;5.75;54.06;100868.92;126214;1295;636239;-61
2024/03/17 17:40:48;;;;;;;9.30;4.80;;;;;;;5.66;54.09;100870.16;127629;1284;128844;-62
2024/03/17 17:44:52;;;;;;;6.90;3.60;;;;;;;5.63;54.43;100872.52;126394;1291;114944;-62
2024/03/17 17:48:36;;;;;;;5.40;2.90;;;;;;;5.60;54.51;100873.12;123257;1301;3407535;-62
2024/03/17 17:52:20;;;;;;;4.20;2.40;;;;;;;5.52;54.68;100867.23;125221;1318;114960;-62
2024/03/17 17:56:13;;;;;;;5.80;2.30;;;;;;;5.47;54.82;100865.56;125907;1301;114882;-62
2024/03/17 18:00:10;;;;;;;2.00;1.10;;;;;;;5.41;55.02;100863.20;125666;1305;129654;-61
2024/03/17 18:03:32;;;;;;;6.20;2.20;;;;;;;5.35;55.02;100866.52;125757;1298;114950;-61
2024/03/17 18:07:09;;;;;;;;;;;;;;;;;;;;;
2024/03/17 18:11:16;;;;;;;3.10;1.90;;;;;;;5.26;55.30;100866.14;125845;1309;115258;-61
2024/03/17 18:15:32;;;;;;;6.10;2.80;;;;;;;5.21;55.88;100869.77;125942;1309;115057;-62
2024/03/17 18:19:14;;;;;;;5.90;3.70;;;;;;;5.15;56.02;100872.70;127214;1284;128024;-61
2024/03/17 18:22:49;;;;;;;;;;;;;;;;;;;;;
2024/03/17 18:26:16;;;;;;;8.80;4.10;;;;;;;5.09;56.25;100870.15;128918;1270;114845;-62
2024/03/17 18:30:15;;;;;;;9.00;4.40;;;;;;;5.07;56.37;100871.80;129135;1286;114768;-63
2024/03/17 18:33:58;;;;;;;;;;;;;;;;;;;;;
2024/03/17 18:37:10;;;;;;;5.60;2.50;;;;;;;4.95;56.69;100875.00;128439;1275;129123;-61
2024/03/17 18:40:15;;;;;;;4.70;3.20;;;;;;;4.88;56.99;100880.79;128581;1276;114980;-62
2024/03/17 18:43:33;;;;;;;5.30;2.70;;;;;;;4.82;57.16;100881.41;128548;1278;114833;-61
2024/03/17 18:46:48;;;;;;;5.90;3.50;;;;;;;4.77;57.13;100884.33;129123;1278;114898;-64
2024/03/17 18:50:04;;;;;;;5.90;2.70;;;;;;;4.75;57.42;100884.54;129210;1285;115164;-61
2024/03/17 18:53:12;;;;;;;5.70;2.60;;;;;;;4.71;57.67;100881.95;129162;1268;127954;-61
2024/03/17 18:56:36;;;;;;;4.40;2.50;;;;;;;4.67;57.60;100880.94;129116;1285;115319;-63
2024/03/17 19:00:27;;;;;;;6.20;3.70;;;;;;;4.65;57.72;100881.52;129242;1267;115067;-62
2024/03/17 19:03:58;;;;;;;8.10;2.70;;;;;;;4.63;57.82;100878.55;129219;1285;114837;-60
2024/03/17 19:07:28;;;;;;;5.50;2.70;;;;;;;4.60;58.08;100882.83;129121;1285;114884;-60
2024/03/17 19:10:49;;;;;;;5.00;2.50;;;;;;;4.55;58.00;100879.18;128849;1274;128931;-61
2024/03/17 19:14:40;;;;;;;7.10;4.00;;;;;;;4.49;58.28;100884.42;129378;1267;114776;-64
2024/03/17 19:18:15;;;;;;;9.70;4.50;;;;;;;4.42;58.12;100884.52;128638;1273;114891;-62
2024/03/17 19:25:20;;;;;;;4.70;2.40;;;;;;;4.33;58.66;100885.68;128401;1297;114993;-61
2024/03/17 19:28:23;;;;;;;8.00;3.90;;;;;;;4.32;58.80;100884.64;128077;1280;114964;-60
2024/03/17 19:31:28;;;;;;;4.00;2.20;;;;;;;4.29;58.81;100881.69;128524;1280;114925;-61
2024/03/17 19:34:39;;;;;;;7.00;3.30;;;;;;;4.26;59.06;100880.49;128161;1297;114907;-60
2024/03/17 19:38:30;;;;;;;5.70;2.80;;;;;;;4.24;58.83;100876.63;128214;1291;114968;-61
2024/03/17 19:42:00;;;;;;;6.70;3.30;;;;;;;4.22;59.11;100880.89;126723;1307;114968;-61
2024/03/17 19:46:09;;;;;;;;;;;;;;;;;;;;;
2024/03/17 19:49:47;;;;;;;;;;;;;;;;;;;;;
2024/03/17 19:53:36;;;;;;;5.10;2.30;;;;;;;4.19;59.13;100889.60;125799;1314;114976;-62
2024/03/17 19:57:31;;;;;;;6.60;2.80;;;;;;;4.17;59.19;100889.27;125895;1297;115026;-62
2024/03/17 20:01:21;;;;;;;;;;;;;;;;;;;;;
2024/03/17 20:04:35;;;;;;;5.20;2.70;;;;;;;4.11;59.52;100888.13;125990;1293;130106;-64
2024/03/17 20:07:39;;;;;;;8.10;3.00;;;;;;;4.10;59.64;100884.42;125999;1314;115029;-60
2024/03/17 20:10:43;;;;;;;4.80;2.20;;;;;;;4.09;59.73;100886.02;126172;1294;114812;-63
2024/03/17 20:14:06;;;;;;;4.00;2.00;;;;;;;4.08;59.64;100882.67;126290;1294;114955;-62
2024/03/17 20:17:50;;;;;;;3.90;2.40;;;;;;;4.08;59.92;100884.09;126038;1293;114872;-67
2024/03/17 20:20:53;;;;;;;5.70;3.00;;;;;;;4.08;60.03;100880.04;126521;1290;129997;-65
2024/03/17 20:24:23;;;;;;;5.60;3.80;;;;;;;4.07;60.15;100882.87;126627;1308;114926;-60
2024/03/17 20:27:37;;;;;;;6.40;3.40;;;;;;;4.05;60.12;100880.42;127764;1296;114991;-64
2024/03/17 20:30:44;;;;;;;6.40;3.10;;;;;;;4.05;60.25;100883.06;128257;1296;115031;-65
2024/03/17 20:33:50;;;;;;;7.80;3.20;;;;;;;4.06;60.23;100884.83;128589;1272;114859;-64
2024/03/17 20:37:17;;;;;;;5.30;2.10;;;;;;;4.06;60.21;100886.94;128995;1284;128594;-66
2024/03/17 20:40:19;;;;;;;4.80;2.30;;;;;;;4.05;60.25;100887.14;129024;1270;114863;-65
2024/03/17 20:44:07;;;;;;;4.40;2.00;;;;;;;4.04;60.38;100891.23;129059;1290;115011;-64
2024/03/17 20:47:08;;;;;;;6.00;3.00;;;;;;;4.02;60.24;100887.35;128901;1270;114908;-64
2024/03/17 20:50:17;;;;;;;6.60;3.20;;;;;;;4.02;60.46;100887.89;129009;1272;115523;-64
2024/03/17 20:53:19;;;;;;;7.70;3.50;;;;;;;4.03;60.44;100888.23;128933;1270;127652;-61
2024/03/17 20:56:22;;;;;;;5.60;2.60;;;;;;;4.04;60.46;100884.69;128994;1267;114946;-61
2024/03/17 20:59:25;;;;;;;6.30;2.70;;;;;;;4.04;60.50;100884.33;129242;1266;115396;-61
2024/03/17 21:02:27;;;;;;;5.20;2.50;;;;;;;4.05;60.64;100881.30;129236;1273;114900;-62
2024/03/17 21:05:32;;;;;;;5.10;3.00;;;;;;;4.05;60.31;100879.54;129421;1274;114837;-61
2024/03/17 21:08:34;;;;;;;6.30;2.60;;;;;;;4.03;60.56;100879.92;129320;1267;115240;-62
2024/03/17 21:11:41;;;;;;;5.50;2.40;;;;;;;4.01;60.60;100879.23;129438;1285;114915;-62
2024/03/17 21:14:44;;;;;;;6.10;2.90;;;;;;;4.00;60.60;100874.13;129269;1285;114910;-62
2024/03/17 21:17:47;;;;;;;4.90;3.20;;;;;;;3.98;60.62;100871.50;129667;1261;115250;-61
2024/03/17 21:21:30;;;;;;;4.30;2.20;;;;;;;3.95;60.77;100866.95;129940;1260;115135;-63
2024/03/17 21:24:52;;;;;;;4.30;2.70;;;;;;;3.95;60.85;100859.88;129427;1264;114907;-63
2024/03/17 21:27:58;;;;;;;4.20;2.30;;;;;;;3.95;60.73;100858.64;129095;1285;128615;-61
2024/03/17 21:31:18;;;;;;;7.10;2.70;;;;;;;3.94;60.96;100861.49;129155;1268;114844;-62
2024/03/17 21:34:46;;;;;;;;;;;;;;;;;;;;;
2024/03/17 21:37:49;;;;;;;6.60;3.00;;;;;;;3.94;60.95;100865.02;129163;1285;114855;-63
2024/03/17 21:40:51;;;;;;;6.30;2.50;;;;;;;3.93;61.16;100860.27;129416;1285;114953;-60
2024/03/17 21:44:03;;;;;;;5.10;2.50;;;;;;;3.92;61.05;100863.09;129505;1266;114952;-62
2024/03/17 21:47:08;;;;;;;5.60;2.50;;;;;;;3.92;61.10;100865.21;129239;1266;114982;-61
2024/03/17 21:50:14;;;;;;;5.70;2.90;;;;;;;3.91;61.20;100863.81;129352;1284;114764;-59
2024/03/17 21:53:16;;;;;;;4.50;2.20;;;;;;;3.89;61.35;100865.42;129367;1265;114930;-60
2024/03/17 21:56:19;;;;;;;3.90;2.50;;;;;;;3.87;61.31;100864.06;129458;1284;114921;-60
2024/03/17 21:59:21;;;;;;;4.40;2.10;;;;;;;3.84;61.35;100869.91;129432;1266;114822;-61
2024/03/17 22:02:24;;;;;;;2.40;1.30;;;;;;;3.80;61.29;100869.63;129623;1279;114845;-60
2024/03/17 22:05:26;;;;;;;3.70;2.30;;;;;;;3.77;61.12;100870.17;129961;1279;114814;-61
2024/03/17 22:08:34;;;;;;;3.30;1.80;;;;;;;3.73;61.23;100867.39;129812;1260;114731;-61
2024/03/17 22:11:37;;;;;;;4.20;2.00;;;;;;;3.70;61.12;100867.44;129637;1261;114826;-60
2024/03/17 22:14:45;;;;;;;3.90;1.70;;;;;;;3.68;61.33;100866.92;129700;1279;114774;-60
2024/03/17 22:17:51;;;;;;;4.50;3.30;;;;;;;3.67;61.33;100866.59;129642;1279;128811;-62
2024/03/17 22:21:15;;;;;;;3.20;1.70;;;;;;;3.64;61.40;100862.39;129578;1279;114758;-62
2024/03/17 22:24:20;;;;;;;3.80;1.50;;;;;;;3.62;61.39;100856.75;129724;1260;114771;-62
2024/03/17 22:27:23;;;;;;;3.60;1.90;;;;;;;3.60;61.52;100856.41;129571;1279;114762;-61
2024/03/17 22:30:26;;;;;;;3.40;1.80;;;;;;;3.59;61.56;100861.38;129595;1261;115198;-60
2024/03/17 22:33:32;;;;;;;4.30;1.60;;;;;;;3.57;61.54;100865.80;129775;1277;114739;-61
2024/03/17 22:36:42;;;;;;;3.20;1.70;;;;;;;3.55;61.72;100860.54;130011;1259;114747;-60
2024/03/17 22:39:55;;;;;;;7.10;2.80;;;;;;;3.53;61.92;100861.63;129754;1277;114721;-61
2024/03/17 22:43:10;;;;;;;5.70;2.90;;;;;;;3.49;61.90;100862.91;129667;1277;114783;-61